Time;durP1;ratioP1;P1;durP2;ratioP2;P2;SDS_P1;SDS_P2;PMS_P1;PMS_P2;Temp;Humidity;BMP_temperature;BMP_pressure;BME280_temperature;BME280_humidity;BME280_pressure;Samples;Min_cycle;Max_cycle;Signal;HPM_P1;HPM_P2
2021/11/24 00:01:59;;;;;;;;;42.75;33.75;;;;;13.87;86.22;101236.13;146606;626;46014;-75
2021/11/24 00:04:51;;;;;;;;;41.75;33.25;;;;;13.78;87.99;101247.00;146605;572;46021;-80
2021/11/24 00:07:43;;;;;;;;;41.50;35.25;;;;;13.70;89.72;101243.13;146604;569;47016;-79
2021/11/24 00:10:36;;;;;;;;;43.50;36.75;;;;;13.66;89.72;101238.62;146610;636;46010;-78
2021/11/24 00:13:29;;;;;;;;;39.25;32.50;;;;;13.67;88.29;101231.69;146608;596;46012;-77
2021/11/24 00:16:21;;;;;;;;;30.25;26.50;;;;;13.70;87.20;101237.91;146608;571;46010;-78
2021/11/24 00:19:13;;;;;;;;;35.50;29.75;;;;;13.73;86.66;101240.66;146607;629;46013;-77
2021/11/24 00:22:05;;;;;;;;;44.50;38.00;;;;;13.80;86.70;101247.06;146609;567;45020;-77
2021/11/24 00:24:58;;;;;;;;;43.00;34.00;;;;;13.84;86.74;101241.19;146604;563;46016;-88
2021/11/24 00:27:49;;;;;;;;;36.25;30.50;;;;;13.86;85.88;101240.44;146607;621;46011;-84
2021/11/24 00:30:42;;;;;;;;;39.75;34.25;;;;;13.91;87.08;101248.47;146604;733;46016;-81
2021/11/24 00:33:34;;;;;;;;;47.00;37.00;;;;;13.91;88.57;101239.75;146608;671;46010;-83
2021/11/24 00:36:27;;;;;;;;;48.75;35.75;;;;;13.88;86.94;101222.25;146602;684;46914;-85
2021/11/24 00:39:18;;;;;;;;;45.75;38.00;;;;;13.88;85.81;101222.25;146608;625;46020;-85
2021/11/24 00:42:11;;;;;;;;;45.00;35.75;;;;;13.92;87.31;101234.59;146607;642;46012;-84
2021/11/24 00:45:03;;;;;;;;;47.00;37.25;;;;;13.92;86.26;101238.91;146609;587;46010;-80
2021/11/24 00:47:55;;;;;;;;;44.00;34.75;;;;;13.95;86.03;101237.34;146604;600;46914;-81
2021/11/24 00:50:47;;;;;;;;;39.50;32.75;;;;;13.97;85.48;101251.34;146608;576;46010;-79
2021/11/24 00:53:40;;;;;;;;;14.25;13.50;;;;;13.96;83.95;101246.09;146607;574;46016;-84
2021/11/24 00:56:32;;;;;;;;;4.50;2.75;;;;;14.00;81.15;101248.88;146606;685;46021;-86
2021/11/24 00:59:24;;;;;;;;;5.33;4.00;;;;;14.00;81.16;101266.25;146606;733;46016;-87
2021/11/24 01:02:16;;;;;;;;;4.00;4.00;;;;;14.01;80.86;101278.44;146611;570;46010;-85
2021/11/24 01:05:09;;;;;;;;;2.00;1.00;;;;;13.97;80.85;101293.06;146609;570;46013;-87
2021/11/24 01:08:01;;;;;;;;;2.33;1.67;;;;;13.96;79.88;101304.31;146608;602;46020;-89
2021/11/24 01:10:54;;;;;;;;;1.00;1.00;;;;;12.92;78.97;101149.13;146608;588;46013;-86
2021/11/24 01:13:46;;;;;;;;;3.00;2.00;;;;;13.90;80.11;101318.78;146610;587;46020;-85
2021/11/24 01:16:38;;;;;;;;;0.67;0.67;;;;;13.82;80.12;101305.38;146607;563;46012;-83
2021/11/24 01:19:31;;;;;;;;;1.67;1.00;;;;;13.78;80.98;101312.16;146610;579;46021;-77
2021/11/24 01:22:23;;;;;;;;;3.33;2.00;;;;;13.75;82.12;101301.59;146607;586;46012;-75
2021/11/24 01:25:15;;;;;;;;;9.00;9.00;;;;;13.70;84.44;101310.91;146605;576;47014;-74
2021/11/24 01:28:08;;;;;;;;;5.00;4.00;;;;;13.67;82.96;101308.16;146605;589;46914;-76
2021/11/24 01:31:00;;;;;;;;;5.33;5.33;;;;;13.66;82.59;101308.09;146607;673;46020;-77
2021/11/24 01:33:52;;;;;;;;;4.00;3.33;;;;;13.68;83.14;101315.16;146606;579;46013;-80
2021/11/24 01:36:45;;;;;;;;;5.00;4.00;;;;;13.67;84.11;101313.34;146608;573;46020;-81
2021/11/24 01:39:38;;;;;;;;;4.67;4.00;;;;;13.64;83.82;101315.81;146605;575;47012;-79
2021/11/24 01:42:31;;;;;;;;;3.33;2.33;;;;;13.60;84.42;101320.00;146610;660;46010;-80
2021/11/24 01:45:25;;;;;;;;;4.67;3.67;;;;;13.52;84.04;101299.59;146605;581;46016;-80
2021/11/24 01:48:17;;;;;;;;;6.00;4.67;;;;;13.49;84.26;101315.06;146608;594;45050;-79
2021/11/24 01:51:09;;;;;;;;;5.67;4.00;;;;;13.45;84.44;101316.62;146605;590;46016;-79
2021/11/24 01:54:02;;;;;;;;;4.67;3.67;;;;;13.39;84.34;101317.25;146611;621;45031;-76
2021/11/24 01:56:54;;;;;;;;;4.67;4.67;;;;;13.36;83.69;101322.31;146607;570;46014;-74
2021/11/24 01:59:47;;;;;;;;;5.67;5.67;;;;;13.34;84.93;101338.69;146614;564;45020;-75
2021/11/24 02:02:40;;;;;;;;;4.00;3.00;;;;;13.30;84.49;101334.09;146605;602;46013;-75
2021/11/24 02:05:32;;;;;;;;;2.67;2.67;;;;;13.29;85.54;101309.78;146607;585;46021;-75
2021/11/24 02:08:23;;;;;;;;;5.00;5.00;;;;;13.29;85.32;101319.31;146605;692;46016;-73
2021/11/24 02:11:16;;;;;;;;;6.00;6.00;;;;;13.26;85.44;101317.44;146606;577;46020;-77
2021/11/24 02:14:10;;;;;;;;;4.00;4.00;;;;;13.26;84.56;101317.44;146608;608;46016;-82
2021/11/24 02:17:02;;;;;;;;;2.67;2.67;;;;;13.24;84.98;101328.56;146609;585;46020;-82
2021/11/24 02:19:54;;;;;;;;;5.00;4.00;;;;;13.24;85.34;101338.97;146606;638;46014;-79
2021/11/24 02:22:46;;;;;;;;;3.67;2.00;;;;;13.17;85.15;101333.47;146610;655;46010;-81
2021/11/24 02:25:39;;;;;;;;;0.67;0.67;;;;;13.14;84.43;101322.00;146605;574;47015;-78
2021/11/24 02:28:31;;;;;;;;;2.33;2.33;;;;;13.12;86.07;101308.03;146609;571;46020;-80
2021/11/24 02:31:26;;;;;;;;;1.33;1.33;;;;;13.08;85.61;101290.44;146610;676;46012;-80
2021/11/24 02:34:19;;;;;;;;;1.00;1.00;;;;;13.07;84.67;101293.88;146612;569;46010;-78
2021/11/24 02:37:12;;;;;;;;;0.67;0.67;;;;;13.03;84.87;101298.03;146606;582;46014;-75
2021/11/24 02:40:04;;;;;;;;;1.00;1.00;;;;;13.03;84.09;101312.78;146610;668;46010;-76
2021/11/24 02:42:56;;;;;;;;;0.33;0.33;;;;;13.04;84.33;101331.06;146608;658;46016;-76
2021/11/24 02:45:48;;;;;;;;;0.67;0.67;;;;;13.06;83.70;101323.34;146610;571;46020;-77
2021/11/24 02:48:40;;;;;;;;;1.00;0.00;;;;;13.06;83.24;101329.44;146607;587;46013;-75
2021/11/24 02:51:32;;;;;;;;;1.33;0.00;;;;;13.09;82.52;101327.00;146608;693;46020;-74
2021/11/24 02:54:24;;;;;;;;;1.00;1.00;;;;;13.11;82.73;101327.94;146606;580;46016;-81
2021/11/24 02:57:17;;;;;;;;;0.00;0.00;;;;;13.12;83.92;101321.06;146611;576;45021;-74
2021/11/24 03:00:32;;;;;;;;;0.00;0.00;;;;;13.07;84.18;101320.81;146608;645;46014;-78
2021/11/24 03:03:24;;;;;;;;;2.00;1.00;;;;;13.02;82.47;101337.91;146607;618;46021;-74
2021/11/24 03:06:16;;;;;;;;;0.00;0.00;;;;;13.02;81.82;101329.19;146609;564;46012;-74
2021/11/24 03:09:09;;;;;;;;;0.00;0.00;;;;;13.04;81.76;101337.97;146605;597;50010;-74
2021/11/24 03:12:01;;;;;;;;;2.33;1.67;;;;;13.07;82.56;101335.53;146607;652;46016;-74
2021/11/24 03:14:53;;;;;;;;;4.67;4.67;;;;;13.07;82.80;101343.34;146608;592;46020;-75
2021/11/24 03:17:46;;;;;;;;;2.00;2.00;;;;;13.06;83.16;101351.97;146607;626;46016;-76
2021/11/24 03:20:38;;;;;;;;;0.67;0.33;;;;;13.07;82.46;101349.44;146609;699;46021;-76
2021/11/24 03:23:30;;;;;;;;;2.33;1.33;;;;;13.04;82.80;101351.87;146603;686;46914;-75
2021/11/24 03:26:22;;;;;;;;;2.00;1.33;;;;;13.04;82.50;101338.87;146609;613;46010;-75
2021/11/24 03:29:15;;;;;;;;;2.33;2.33;;;;;13.09;82.47;101352.13;146606;598;46913;-76
2021/11/24 03:32:07;;;;;;;;;4.00;3.00;;;;;13.12;82.81;101347.09;146609;564;46011;-76
2021/11/24 03:34:59;;;;;;;;;1.00;1.00;;;;;13.17;82.45;101366.41;146608;640;46016;-76
2021/11/24 03:37:52;;;;;;;;;7.00;6.00;;;;;13.20;82.76;101366.56;146610;639;46010;-78
2021/11/24 03:40:44;;;;;;;;;7.50;7.50;;;;;13.20;83.26;101366.56;146607;654;46013;-78
2021/11/24 03:43:36;;;;;;;;;26.75;23.75;;;;;13.23;83.69;101374.53;146610;563;45050;-78
2021/11/24 03:46:29;;;;;;;;;4.33;3.00;;;;;13.21;83.57;101384.00;146605;570;47015;-79
2021/11/24 03:49:21;;;;;;;;;1.67;1.00;;;;;13.17;82.85;101379.44;146609;626;46010;-77
2021/11/24 03:52:14;;;;;;;;;2.00;1.33;;;;;13.16;82.83;101372.47;146607;606;46016;-75
2021/11/24 03:55:09;;;;;;;;;2.00;2.00;;;;;13.10;82.83;101362.63;146609;635;46021;-76
2021/11/24 03:58:02;;;;;;;;;3.00;3.00;;;;;13.11;83.77;101380.00;146605;606;46016;-76
2021/11/24 04:00:54;;;;;;;;;3.33;2.33;;;;;13.09;84.51;101384.28;146611;565;46010;-74
2021/11/24 04:03:47;;;;;;;;;2.33;2.33;;;;;13.08;83.69;101390.31;146606;596;46016;-74
2021/11/24 04:06:39;;;;;;;;;1.00;1.00;;;;;13.06;84.81;101406.66;146610;635;46010;-74
2021/11/24 04:09:32;;;;;;;;;1.00;1.00;;;;;13.01;84.88;101413.31;146606;687;46914;-75
2021/11/24 04:12:24;;;;;;;;;3.00;3.00;;;;;12.93;84.45;101399.91;146609;608;46010;-76
2021/11/24 04:15:19;;;;;;;;;1.00;1.00;;;;;12.92;84.41;101400.72;146607;566;46016;-76
2021/11/24 04:18:11;;;;;;;;;5.75;4.75;;;;;12.95;84.27;101413.88;146609;688;46010;-76
2021/11/24 04:21:03;;;;;;;;;2.67;2.00;;;;;12.99;84.42;101412.34;146607;577;46012;-73
2021/11/24 04:23:55;;;;;;;;;3.00;1.67;;;;;13.01;84.95;101418.53;146610;613;45914;-73
2021/11/24 04:26:48;;;;;;;;;3.75;3.75;;;;;13.04;84.70;101414.38;146606;685;45017;-73
2021/11/24 04:29:40;;;;;;;;;4.00;4.00;;;;;13.08;84.46;101416.34;146609;628;47010;-84
2021/11/24 04:32:32;;;;;;;;;6.25;5.75;;;;;13.10;84.30;101414.69;146602;703;47014;-81
2021/11/24 04:35:25;;;;;;;;;11.25;8.00;;;;;13.14;83.92;101407.94;146608;569;46020;-81
2021/11/24 04:38:17;;;;;;;;;9.50;9.00;;;;;13.16;84.30;101403.69;146606;573;46016;-75
2021/11/24 04:41:10;;;;;;;;;5.50;5.50;;;;;13.22;83.85;101410.94;146606;613;46021;-78
2021/11/24 04:44:02;;;;;;;;;7.50;6.50;;;;;13.26;84.20;101419.00;146607;569;46012;-76
2021/11/24 04:46:54;;;;;;;;;7.50;7.00;;;;;13.28;83.23;101430.41;146609;564;45021;-76
2021/11/24 04:49:46;;;;;;;;;7.25;6.75;;;;;13.31;83.12;101435.78;146603;693;46039;-75
2021/11/24 04:52:39;;;;;;;;;4.75;4.75;;;;;13.33;82.73;101441.97;146610;674;46010;-73
2021/11/24 04:55:33;;;;;;;;;9.25;9.25;;;;;13.36;83.09;101452.56;146606;593;46016;-72
2021/11/24 04:58:25;;;;;;;;;4.67;3.67;;;;;13.37;83.26;101449.12;146608;585;46010;-73
2021/11/24 05:01:17;;;;;;;;;2.00;2.00;;;;;13.37;83.48;101440.41;146606;569;46914;-73
2021/11/24 05:04:09;;;;;;;;;4.25;4.00;;;;;13.35;83.67;101427.28;146609;641;46010;-73
2021/11/24 05:07:01;;;;;;;;;5.25;5.00;;;;;13.34;83.18;101424.63;146603;579;47012;-73
2021/11/24 05:09:54;;;;;;;;;5.00;5.00;;;;;13.31;82.52;101433.19;146610;583;45021;-73
2021/11/24 05:12:46;;;;;;;;;6.50;4.00;;;;;13.37;82.09;101456.94;146609;579;46016;-73
2021/11/24 05:15:42;;;;;;;;;7.00;5.25;;;;;13.38;82.32;101466.53;146610;583;47011;-73
2021/11/24 05:18:39;;;;;;;;;3.67;3.67;;;;;13.39;82.76;101473.56;146612;608;46016;-74
2021/11/24 05:21:36;;;;;;;;;5.00;5.00;;;;;13.37;82.87;101467.34;146610;578;46020;-73
2021/11/24 05:24:29;;;;;;;;;5.33;5.00;;;;;13.32;82.61;101467.91;146609;597;46017;-74
2021/11/24 05:27:21;;;;;;;;;5.00;4.00;;;;;13.33;82.65;101481.03;146615;624;45050;-77
2021/11/24 05:30:14;;;;;;;;;9.25;7.50;;;;;13.33;82.45;101481.03;146610;668;46013;-75
2021/11/24 05:33:06;;;;;;;;;5.67;4.33;;;;;13.36;81.80;101485.50;146611;580;46020;-74
2021/11/24 05:35:58;;;;;;;;;7.33;6.00;;;;;13.37;81.97;101482.09;146614;577;46012;-73
2021/11/24 05:38:50;;;;;;;;;10.00;7.25;;;;;13.39;81.84;101475.22;146613;572;46021;-76
2021/11/24 05:41:43;;;;;;;;;6.67;6.00;;;;;13.42;81.77;101480.59;146609;588;46016;-78
2021/11/24 05:44:37;;;;;;;;;8.00;6.00;;;;;13.47;82.11;101489.56;146615;563;46010;-76
2021/11/24 05:50:40;;;;;;;;;4.00;2.00;;;;;13.42;82.50;101506.66;146617;586;46010;-72
2021/11/24 05:53:32;;;;;;;;;10.00;8.00;;;;;13.37;83.47;101513.34;146609;622;46017;-73
2021/11/24 05:56:24;;;;;;;;;13.75;12.25;;;;;13.30;83.51;101519.03;146614;583;46010;-78
2021/11/24 05:59:19;;;;;;;;;14.00;13.25;;;;;13.24;82.67;101521.28;146607;564;46015;-72
2021/11/24 06:02:11;;;;;;;;;14.50;11.00;;;;;13.23;82.35;101514.28;146611;590;46020;-73
2021/11/24 06:05:03;;;;;;;;;13.25;12.00;;;;;13.25;82.53;101516.19;146608;592;46016;-74
2021/11/24 06:07:55;;;;;;;;;13.00;11.00;;;;;13.30;82.82;101521.63;146612;660;46011;-76
2021/11/24 06:10:48;;;;;;;;;9.50;9.00;;;;;13.33;83.31;101537.44;146606;584;46012;-74
2021/11/24 06:13:41;;;;;;;;;57.25;43.50;;;;;13.34;83.25;101550.56;146607;595;45050;-73
2021/11/24 06:16:33;;;;;;;;;38.00;31.00;;;;;13.33;83.32;101558.25;146607;591;46013;-74
2021/11/24 06:19:25;;;;;;;;;31.50;24.00;;;;;13.35;83.19;101547.12;146608;611;46020;-74
2021/11/24 06:22:17;;;;;;;;;9.00;6.75;;;;;13.34;83.06;101545.34;146608;699;46035;-74
2021/11/24 06:25:11;;;;;;;;;10.50;9.25;;;;;13.34;82.87;101542.72;146609;713;46021;-78
2021/11/24 06:28:04;;;;;;;;;15.00;12.75;;;;;13.38;82.20;101544.69;146606;577;46016;-84
2021/11/24 06:30:56;;;;;;;;;11.75;10.25;;;;;13.39;81.62;101546.50;146609;680;45030;-85
2021/11/24 06:33:51;;;;;;;;;25.00;21.50;;;;;13.44;81.65;101564.06;146606;566;46016;-86
2021/11/24 06:36:43;;;;;;;;;16.75;16.75;;;;;13.48;81.93;101566.91;146608;686;46021;-85
2021/11/24 06:39:35;;;;;;;;;21.00;17.50;;;;;13.49;82.24;101565.19;146605;696;46012;-85
2021/11/24 06:42:27;;;;;;;;;13.75;13.75;;;;;13.50;82.29;101580.03;146608;660;46010;-83
2021/11/24 06:45:20;;;;;;;;;10.50;10.50;;;;;13.52;82.50;101591.41;146604;605;46016;-82
2021/11/24 06:48:13;;;;;;;;;10.25;9.00;;;;;13.51;82.34;101584.41;146604;638;46020;-85
2021/11/24 06:51:06;;;;;;;;;10.75;9.25;;;;;13.51;82.22;101593.13;146607;701;46017;-86
2021/11/24 06:53:58;;;;;;;;;12.75;10.50;;;;;13.50;81.96;101590.44;146608;571;46020;-79
2021/11/24 06:56:52;;;;;;;;;14.00;11.50;;;;;13.51;82.03;101585.28;146604;565;46012;-78
2021/11/24 06:59:44;;;;;;;;;7.67;4.67;;;;;13.52;81.72;101580.97;146609;621;46021;-76
2021/11/24 07:02:37;;;;;;;;;5.00;5.00;;;;;13.56;81.41;101588.16;146608;630;46014;-75
2021/11/24 07:05:28;;;;;;;;;11.00;10.50;;;;;13.57;81.07;101608.19;146609;615;46010;-81
2021/11/24 07:08:21;;;;;;;;;12.00;11.00;;;;;13.62;81.03;101614.53;146606;572;46016;-88
2021/11/24 07:11:14;;;;;;;;;34.00;27.00;;;;;13.63;81.51;101613.72;146604;569;46020;-85
2021/11/24 07:14:08;;;;;;;;;12.75;11.75;;;;;13.65;81.78;101612.09;146603;585;47913;-89
2021/11/24 07:17:00;;;;;;;;;11.00;10.00;;;;;13.65;81.64;101619.03;146608;632;46020;-88
2021/11/24 07:19:52;;;;;;;;;14.75;11.25;;;;;13.66;81.61;101626.91;146605;570;46016;-88
2021/11/24 07:22:45;;;;;;;;;18.00;15.75;;;;;13.69;80.92;101624.47;146607;661;46021;-80
2021/11/24 07:25:37;;;;;;;;;31.50;27.75;;;;;13.71;80.49;101621.97;146607;597;46012;-80
2021/11/24 07:28:29;;;;;;;;;35.25;32.00;;;;;13.72;80.97;101627.25;146607;591;46010;-81
2021/11/24 07:31:22;;;;;;;;;38.50;32.00;;;;;13.76;81.05;101633.50;146606;603;46016;-80
2021/11/24 07:34:14;;;;;;;;;40.75;32.25;;;;;13.78;80.76;101643.22;146608;638;46025;-85
2021/11/24 07:37:06;;;;;;;;;32.50;27.50;;;;;13.80;80.99;101631.16;146607;587;46016;-88
2021/11/24 07:39:59;;;;;;;;;22.75;20.00;;;;;13.83;80.99;101646.97;146606;582;46020;-88
2021/11/24 07:42:51;;;;;;;;;17.25;16.25;;;;;13.81;81.72;101647.69;146606;582;46016;-89
2021/11/24 07:45:43;;;;;;;;;10.75;9.50;;;;;13.72;82.21;101647.19;146605;602;46021;-75
2021/11/24 07:48:36;;;;;;;;;9.75;8.25;;;;;13.66;82.06;101657.31;146605;683;46016;-80
2021/11/24 07:51:29;;;;;;;;;11.50;10.00;;;;;13.61;81.84;101654.44;146610;575;45021;-78
2021/11/24 07:54:21;;;;;;;;;9.00;9.00;;;;;13.61;81.34;101657.03;146605;564;46016;-80
2021/11/24 07:57:13;;;;;;;;;5.25;5.00;;;;;13.65;81.26;101651.19;146608;590;46020;-75
2021/11/24 08:00:06;;;;;;;;;7.75;6.75;;;;;13.71;80.42;101655.84;146606;671;46012;-77
2021/11/24 08:02:58;;;;;;;;;6.00;5.00;;;;;13.79;80.84;101658.00;146609;598;46020;-76
2021/11/24 08:05:50;;;;;;;;;7.75;6.00;;;;;13.86;78.54;101659.22;146606;685;46012;-74
2021/11/24 08:08:43;;;;;;;;;7.33;6.67;;;;;13.94;80.07;101657.03;146610;608;46010;-78
2021/11/24 08:11:35;;;;;;;;;13.00;11.50;;;;;13.96;80.25;101656.31;146607;602;46012;-75
2021/11/24 08:14:28;;;;;;;;;9.00;8.75;;;;;13.99;78.64;101666.03;146610;648;46010;-79
2021/11/24 08:17:20;;;;;;;;;15.00;8.75;;;;;14.05;79.18;101676.78;146607;613;46012;-83
2021/11/24 08:20:12;;;;;;;;;11.50;10.00;;;;;14.08;79.70;101674.28;146608;615;46010;-87
2021/11/24 08:23:04;;;;;;;;;7.00;6.75;;;;;14.11;79.82;101666.63;146605;631;46012;-81
2021/11/24 08:25:57;;;;;;;;;7.25;6.75;;;;;14.17;78.92;101669.56;146610;641;45020;-79
2021/11/24 08:28:49;;;;;;;;;6.00;5.00;;;;;14.21;78.61;101660.19;146607;567;46013;-79
2021/11/24 08:31:43;;;;;;;;;5.50;5.50;;;;;14.27;78.66;101666.63;146610;565;46010;-79
2021/11/24 08:34:35;;;;;;;;;7.75;6.25;;;;;14.31;79.37;101659.84;146605;613;46017;-80
2021/11/24 08:37:27;;;;;;;;;9.00;6.75;;;;;14.35;78.89;101672.22;146607;642;46010;-80
2021/11/24 08:40:20;;;;;;;;;10.00;10.00;;;;;14.34;78.92;101662.59;146606;583;46012;-80
2021/11/24 08:43:12;;;;;;;;;7.00;7.00;;;;;14.38;79.64;101674.09;146605;611;46020;-82
2021/11/24 08:46:05;;;;;;;;;7.25;6.25;;;;;14.42;79.86;101668.19;146606;563;46012;-80
2021/11/24 08:48:56;;;;;;;;;8.00;8.00;;;;;14.46;79.81;101665.84;146608;707;46011;-80
2021/11/24 08:51:49;;;;;;;;;8.25;8.25;;;;;14.45;79.26;101655.31;146605;572;46016;-80
2021/11/24 08:54:41;;;;;;;;;13.75;11.50;;;;;14.41;77.51;101659.47;146608;657;46020;-78
2021/11/24 08:57:35;;;;;;;;;14.50;12.25;;;;;14.38;77.50;101642.78;146606;636;47012;-77
2021/11/24 09:00:28;;;;;;;;;12.25;12.00;;;;;14.44;77.90;101654.41;146608;631;46010;-78
2021/11/24 09:03:21;;;;;;;;;10.75;9.50;;;;;14.48;75.83;101651.13;146605;669;46016;-78
2021/11/24 09:06:13;;;;;;;;;13.75;11.75;;;;;14.51;77.00;101655.66;146604;593;47010;-79
2021/11/24 09:09:06;;;;;;;;;10.50;9.50;;;;;14.54;76.07;101651.47;146601;581;46016;-78
2021/11/24 09:11:59;;;;;;;;;9.25;8.00;;;;;14.59;75.99;101650.84;146610;700;46024;-79
2021/11/24 09:14:51;;;;;;;;;15.75;13.25;;;;;14.62;76.59;101649.25;146605;589;46014;-78
2021/11/24 09:17:43;;;;;;;;;12.25;10.00;;;;;14.69;75.98;101650.47;146610;615;45020;-77
2021/11/24 09:20:36;;;;;;;;;14.25;12.75;;;;;14.74;75.48;101655.09;146607;565;46014;-79
2021/11/24 09:23:29;;;;;;;;;8.75;6.00;;;;;14.75;75.46;101645.53;146605;566;46020;-78
2021/11/24 09:26:39;;;;;;;;;9.75;9.75;;;;;14.75;75.73;101656.87;146608;588;46012;-78
2021/11/24 09:29:31;;;;;;;;;9.25;8.50;;;;;14.72;76.05;101656.72;146610;645;46020;-78
2021/11/24 09:32:23;;;;;;;;;12.33;9.00;;;;;14.71;77.56;101654.94;146606;571;47012;-78
2021/11/24 09:35:16;;;;;;;;;9.75;8.50;;;;;14.69;76.96;101658.28;146610;659;46011;-79
2021/11/24 09:38:09;;;;;;;;;10.00;9.00;;;;;14.67;76.99;101655.62;146605;690;47014;-76
2021/11/24 09:41:08;;;;;;;;;8.33;6.67;;;;;14.61;74.96;101650.09;146608;655;46020;-77
2021/11/24 09:44:03;;;;;;;;;4.67;4.67;;;;;14.58;75.34;101657.78;146604;642;46038;-77
2021/11/24 09:46:55;;;;;;;;;5.67;5.00;;;;;14.55;75.18;101652.41;146609;596;46020;-80
2021/11/24 09:49:50;;;;;;;;;6.75;5.75;;;;;14.55;74.17;101653.28;146604;594;46017;-78
2021/11/24 09:52:46;;;;;;;;;12.00;10.25;;;;;14.57;75.18;101653.34;146609;566;46010;-77
2021/11/24 09:55:40;;;;;;;;;7.25;7.25;;;;;14.59;75.27;101648.22;146605;620;46914;-78
2021/11/24 09:58:32;;;;;;;;;8.00;6.75;;;;;14.60;75.00;101642.16;146606;742;46020;-77
2021/11/24 10:01:24;;;;;;;;;10.00;7.75;;;;;14.60;74.53;101639.56;146607;643;46012;-80
2021/11/24 10:04:17;;;;;;;;;8.75;6.75;;;;;14.62;74.42;101648.38;146607;643;46011;-78
2021/11/24 10:07:11;;;;;;;;;14.75;12.00;;;;;14.64;74.73;101652.84;146606;615;46014;-80
2021/11/24 10:10:03;;;;;;;;;21.50;19.00;;;;;14.68;74.73;101654.78;146609;568;45020;-79
2021/11/24 10:12:56;;;;;;;;;19.75;18.75;;;;;14.71;74.59;101665.38;146598;570;52034;-79
2021/11/24 10:15:55;;;;;;;;;16.00;14.50;;;;;14.74;73.61;101665.53;146608;711;46010;-78
2021/11/24 10:18:59;;;;;;;;;9.75;8.00;;;;;14.74;73.61;101657.69;146605;645;46017;-80
2021/11/24 10:22:03;;;;;;;;;9.25;8.50;;;;;14.69;73.00;101664.41;146608;671;46020;-77
2021/11/24 10:25:06;;;;;;;;;9.00;9.00;;;;;14.64;72.11;101660.69;146606;614;46016;-78
2021/11/24 10:27:58;;;;;;;;;9.00;8.75;;;;;14.60;71.89;101661.34;146607;670;46020;-77
2021/11/24 10:30:54;;;;;;;;;12.75;10.00;;;;;14.55;71.98;101655.00;146603;635;46038;-77
2021/11/24 10:33:47;;;;;;;;;12.75;10.75;;;;;14.53;72.03;101656.63;146607;694;46011;-78
2021/11/24 10:36:51;;;;;;;;;9.00;8.50;;;;;14.52;71.94;101666.19;146605;619;46012;-78
2021/11/24 10:39:53;;;;;;;;;8.75;8.00;;;;;14.52;71.88;101652.25;146610;685;46010;-79
2021/11/24 10:42:48;;;;;;;;;11.25;9.00;;;;;14.55;72.06;101655.00;146607;564;46012;-79
2021/11/24 10:45:41;;;;;;;;;11.25;10.25;;;;;14.51;67.81;101661.75;146608;575;46032;-80
2021/11/24 10:48:35;;;;;;;;;5.00;5.00;;;;;14.50;66.66;101661.66;146608;637;46012;-79
2021/11/24 10:51:36;;;;;;;;;5.75;5.75;;;;;14.51;70.78;101660.87;146608;685;46020;-79
2021/11/24 10:54:28;;;;;;;;;8.00;6.75;;;;;14.52;71.26;101649.63;146605;575;46016;-79
2021/11/24 10:57:20;;;;;;;;;6.25;6.25;;;;;14.57;73.11;101652.47;146606;650;46010;-79
2021/11/24 11:00:22;;;;;;;;;9.50;8.75;;;;;14.52;70.46;101650.53;146605;660;46012;-78
2021/11/24 11:03:15;;;;;;;;;8.75;8.00;;;;;14.48;68.31;101645.03;146606;610;46015;-80
2021/11/24 11:06:07;;;;;;;;;7.00;6.00;;;;;14.43;65.71;101630.88;146605;564;46913;-77
2021/11/24 11:09:03;;;;;;;;;9.25;9.25;;;;;14.44;69.47;101627.44;146604;579;46020;-78
2021/11/24 11:11:56;;;;;;;;;20.00;15.50;;;;;14.43;69.76;101613.50;146607;584;47012;-77
2021/11/24 11:14:48;;;;;;;;;9.00;8.75;;;;;14.43;67.53;101617.81;146610;578;45020;-77
2021/11/24 11:18:26;;;;;;;;;6.50;3.50;;;;;14.19;69.24;101571.41;146605;666;46016;-77
2021/11/24 11:21:18;;;;;;;;;10.50;7.25;;;;;14.44;69.81;101602.22;146607;604;47010;-76
2021/11/24 11:24:14;;;;;;;;;10.00;9.50;;;;;14.44;70.34;101606.56;146606;582;46012;-76
2021/11/24 11:27:07;;;;;;;;;14.00;12.00;;;;;14.41;70.32;101612.50;146607;588;47014;-78
2021/11/24 11:30:00;;;;;;;;;15.75;13.00;;;;;14.43;71.01;101600.44;146605;576;46012;-77
2021/11/24 11:32:52;;;;;;;;;17.50;15.00;;;;;14.44;70.03;101611.78;146604;623;46020;-76
2021/11/24 11:35:48;;;;;;;;;16.25;16.00;;;;;14.41;70.08;101604.69;146606;616;46016;-78
2021/11/24 11:38:45;;;;;;;;;17.00;16.50;;;;;14.39;71.16;101606.34;146608;621;46010;-79
2021/11/24 11:41:43;;;;;;;;;18.75;17.50;;;;;14.37;70.52;101609.69;146605;665;46016;-76
2021/11/24 11:44:35;;;;;;;;;21.50;19.25;;;;;14.36;70.41;101611.41;146607;652;47010;-76
2021/11/24 11:48:07;;;;;;;;;13.50;12.25;;;;;12.28;70.67;101249.94;146603;593;46016;-78
2021/11/24 11:51:04;;;;;;;;;18.75;15.50;;;;;14.38;70.70;101611.47;146608;587;46020;-78
2021/11/24 11:53:56;;;;;;;;;24.25;21.25;;;;;14.41;71.28;101617.72;146605;593;46016;-77
2021/11/24 11:56:49;;;;;;;;;25.00;21.75;;;;;14.43;69.95;101617.81;146609;588;46010;-77
2021/11/24 11:59:42;;;;;;;;;11.00;10.75;;;;;14.39;69.05;101610.66;146607;618;46016;-78
2021/11/24 12:02:34;;;;;;;;;13.25;13.00;;;;;14.38;69.80;101614.09;146610;600;45022;-77
2021/11/24 12:05:26;;;;;;;;;9.25;9.25;;;;;14.39;70.89;101618.47;146606;611;46012;-78
2021/11/24 12:08:18;;;;;;;;;14.75;13.00;;;;;14.42;70.85;101623.84;146607;593;46020;-78
2021/11/24 12:11:10;;;;;;;;;20.50;16.25;;;;;13.44;71.25;101444.22;146607;593;46013;-78
2021/11/24 12:14:03;;;;;;;;;23.25;20.75;;;;;14.49;70.30;101620.75;146607;627;46010;-78
2021/11/24 12:16:55;;;;;;;;;20.00;17.75;;;;;14.51;70.62;101614.78;146604;636;46016;-78
2021/11/24 12:19:47;;;;;;;;;14.75;14.75;;;;;14.52;70.47;101614.00;146609;624;46020;-79
2021/11/24 12:22:56;;;;;;;;;19.75;16.25;;;;;14.52;70.93;101620.94;146605;616;46016;-78
2021/11/24 12:25:49;;;;;;;;;22.00;20.75;;;;;14.41;70.96;101609.03;146607;617;46021;-79
2021/11/24 12:28:43;;;;;;;;;20.00;17.75;;;;;14.54;70.90;101624.50;146607;609;46012;-79
2021/11/24 12:31:35;;;;;;;;;19.25;18.50;;;;;14.53;71.57;101623.59;146605;689;46020;-78
2021/11/24 12:34:28;;;;;;;;;19.00;16.50;;;;;14.55;71.25;101626.31;146606;601;46012;-78
2021/11/24 12:37:25;;;;;;;;;24.00;21.00;;;;;14.54;71.69;101622.78;146609;615;46010;-78
2021/11/24 12:40:17;;;;;;;;;38.50;32.75;;;;;14.57;71.16;101629.84;146604;593;46016;-79
2021/11/24 12:43:16;;;;;;;;;43.75;36.50;;;;;14.56;71.79;101625.47;146610;662;45020;-78
2021/11/24 12:46:28;;;;;;;;;33.00;27.50;;;;;14.55;71.69;101618.47;146607;608;46013;-80
2021/11/24 12:49:21;;;;;;;;;31.50;29.50;;;;;14.54;71.07;101624.50;146607;595;46020;-80
2021/11/24 12:52:14;;;;;;;;;32.75;30.50;;;;;14.53;70.12;101631.44;146605;620;46012;-81
2021/11/24 12:55:09;;;;;;;;;43.75;34.00;;;;;14.52;71.28;101636.59;146609;570;46010;-79
2021/11/24 12:58:01;;;;;;;;;65.25;50.50;;;;;14.52;71.47;101631.38;146606;702;46012;-80
2021/11/24 13:00:54;;;;;;;;;58.75;47.50;;;;;14.52;71.85;101637.47;146609;585;46011;-79
2021/11/24 13:03:46;;;;;;;;;51.00;41.00;;;;;14.51;71.66;101633.06;146602;566;46017;-79
2021/11/24 13:06:40;;;;;;;;;53.50;42.25;;;;;14.52;71.31;101641.81;146608;577;46020;-79
2021/11/24 13:09:39;;;;;;;;;38.25;33.00;;;;;14.51;71.81;101637.37;146607;589;46016;-80
2021/11/24 13:12:34;;;;;;;;;37.75;31.00;;;;;14.52;71.64;101640.09;146608;624;46010;-79
2021/11/24 13:15:26;;;;;;;;;44.25;32.25;;;;;14.51;71.88;101633.06;146606;603;46017;-79
2021/11/24 13:18:27;;;;;;;;;34.50;30.50;;;;;14.50;71.39;101625.12;146608;613;46020;-78
2021/11/24 13:21:19;;;;;;;;;38.00;33.75;;;;;14.47;71.73;101627.59;146606;591;46016;-78
2021/11/24 13:24:13;;;;;;;;;32.75;30.50;;;;;14.46;71.84;101626.69;146607;739;46021;-78